Time;durP1;ratioP1;P1;durP2;ratioP2;P2;SDS_P1;SDS_P2;PMS_P1;PMS_P2;Temp;Humidity;BMP_temperature;BMP_pressure;BME280_temperature;BME280_humidity;BME280_pressure;Samples;Min_cycle;Max_cycle;Signal;HPM_P1;HPM_P2
2022/10/18 00:01:30;;;;;;;7.45;1.77;;;10.60;99.90;;;;;;4912843;29;20055;-78
2022/10/18 00:03:58;;;;;;;4.85;1.98;;;10.60;99.90;;;;;;4913693;29;20055;-78
2022/10/18 00:06:26;;;;;;;6.95;1.40;;;10.60;99.90;;;;;;4911470;29;20528;-80
2022/10/18 00:08:53;;;;;;;6.45;1.48;;;10.50;99.90;;;;;;4911967;29;20136;-81
2022/10/18 00:11:20;;;;;;;8.68;1.67;;;10.50;99.90;;;;;;4912590;29;20699;-80
2022/10/18 00:13:48;;;;;;;7.95;1.33;;;10.50;99.90;;;;;;4913559;29;20094;-80
2022/10/18 00:16:17;;;;;;;6.72;1.10;;;10.50;99.90;;;;;;4912879;29;20500;-79
2022/10/18 00:18:46;;;;;;;7.38;1.45;;;10.50;99.90;;;;;;4915180;29;20413;-79
2022/10/18 00:21:18;;;;;;;7.95;1.90;;;10.40;99.90;;;;;;4912204;29;20096;-79
2022/10/18 00:23:47;;;;;;;4.85;1.33;;;10.40;99.90;;;;;;4914875;29;20094;-79
2022/10/18 00:26:16;;;;;;;5.95;1.25;;;10.40;99.90;;;;;;4912654;29;20044;-81
2022/10/18 00:28:45;;;;;;;10.88;1.65;;;10.30;99.90;;;;;;4911697;29;20076;-80
2022/10/18 00:31:14;;;;;;;5.93;1.35;;;10.30;99.90;;;;;;4907866;29;20063;-80
2022/10/18 00:33:43;;;;;;;7.90;1.90;;;10.30;99.90;;;;;;4915543;29;20059;-78
2022/10/18 00:36:11;;;;;;;4.65;1.70;;;10.40;99.90;;;;;;4918561;29;20418;-78
2022/10/18 00:38:40;;;;;;;4.18;1.10;;;10.30;99.90;;;;;;4916236;29;20054;-79
2022/10/18 00:41:09;;;;;;;7.10;1.58;;;10.30;99.90;;;;;;4918275;29;20052;-79
2022/10/18 00:43:55;;;;;;;6.18;1.20;;;10.30;99.90;;;;;;4917105;29;20048;-78
2022/10/18 00:46:23;;;;;;;7.30;1.42;;;10.40;99.90;;;;;;4931941;29;20075;-79
2022/10/18 00:48:52;;;;;;;6.40;1.35;;;10.40;99.90;;;;;;4916754;29;20509;-80
2022/10/18 00:51:21;;;;;;;7.80;1.65;;;10.40;99.90;;;;;;4917688;29;20491;-79
2022/10/18 00:53:50;;;;;;;13.98;2.45;;;10.40;99.90;;;;;;4898894;29;20059;-80
2022/10/18 00:56:18;;;;;;;8.45;2.33;;;10.50;99.90;;;;;;4916301;29;20115;-80
2022/10/18 00:58:47;;;;;;;19.80;2.83;;;10.50;99.90;;;;;;4915393;29;20095;-80
2022/10/18 01:01:15;;;;;;;11.45;2.15;;;10.50;99.90;;;;;;4916187;29;20060;-80
2022/10/18 01:03:42;;;;;;;8.80;2.20;;;10.50;99.90;;;;;;4918067;29;20143;-82
2022/10/18 01:06:09;;;;;;;6.45;1.90;;;10.50;99.90;;;;;;4916843;29;20556;-84
2022/10/18 01:09:07;;;;;;;16.52;2.70;;;10.40;99.90;;;;;;4899101;29;20506;-81
2022/10/18 01:11:58;;;;;;;10.38;2.20;;;10.40;99.90;;;;;;4911712;29;20540;-82
2022/10/18 01:14:39;;;;;;;8.60;2.50;;;10.30;99.90;;;;;;4902564;29;20059;-83
2022/10/18 01:17:13;;;;;;;5.53;2.25;;;10.30;99.90;;;;;;4902496;29;20131;-83
2022/10/18 01:20:15;;;;;;;11.63;2.70;;;10.30;99.90;;;;;;4917535;29;20083;-82
2022/10/18 01:22:48;;;;;;;10.30;1.92;;;10.20;99.90;;;;;;4912502;29;20094;-82
2022/10/18 01:25:32;;;;;;;4.93;1.90;;;10.20;99.90;;;;;;4930937;29;20079;-81
2022/10/18 01:28:12;;;;;;;5.07;2.10;;;10.20;99.90;;;;;;4926354;29;20075;-82
2022/10/18 01:30:49;;;;;;;5.88;1.85;;;10.20;99.90;;;;;;4914457;29;20118;-83
2022/10/18 01:33:23;;;;;;;5.70;2.00;;;10.20;99.90;;;;;;4915445;29;20048;-83
2022/10/18 01:35:56;;;;;;;8.75;2.03;;;10.20;99.90;;;;;;4917542;29;20492;-82
2022/10/18 01:38:26;;;;;;;6.18;2.47;;;10.20;99.90;;;;;;4916088;29;20102;-81
2022/10/18 01:40:55;;;;;;;5.88;1.55;;;10.20;99.90;;;;;;4897335;29;20048;-82
2022/10/18 01:43:24;;;;;;;10.05;2.17;;;10.20;99.90;;;;;;4898454;29;20469;-82
2022/10/18 01:45:54;;;;;;;10.13;2.95;;;10.20;99.90;;;;;;4907043;29;20051;-82
2022/10/18 01:48:22;;;;;;;9.18;2.05;;;10.20;99.90;;;;;;4915560;29;20066;-82
2022/10/18 01:50:50;;;;;;;21.23;3.10;;;10.20;99.90;;;;;;4912101;29;20044;-82
2022/10/18 01:53:25;;;;;;;13.93;2.28;;;10.20;99.90;;;;;;4914195;29;20078;-82
2022/10/18 01:56:20;;;;;;;15.43;2.95;;;10.30;99.90;;;;;;4917243;29;20236;-83
2022/10/18 01:58:58;;;;;;;18.85;3.42;;;10.30;99.90;;;;;;4910261;29;20111;-83
2022/10/18 02:01:42;;;;;;;20.38;3.70;;;10.20;99.90;;;;;;4914048;29;20052;-82
2022/10/18 02:04:20;;;;;;;23.35;5.10;;;10.20;99.90;;;;;;4917024;29;20060;-82
2022/10/18 02:06:53;;;;;;;14.43;3.92;;;10.20;99.90;;;;;;4915334;29;20103;-82
2022/10/18 02:09:25;;;;;;;8.27;2.42;;;10.20;99.90;;;;;;4922919;29;20051;-82
2022/10/18 02:11:55;;;;;;;13.43;2.22;;;10.20;99.90;;;;;;4912615;29;20044;-82
2022/10/18 02:14:24;;;;;;;12.18;2.92;;;10.20;99.90;;;;;;4931336;29;20084;-82
2022/10/18 02:16:56;;;;;;;21.35;4.03;;;10.20;99.90;;;;;;4915437;29;20042;-83
2022/10/18 02:19:28;;;;;;;22.10;4.40;;;10.30;99.90;;;;;;4916636;29;20060;-82
2022/10/18 02:21:58;;;;;;;19.00;3.90;;;10.30;99.90;;;;;;4912764;29;20051;-81
2022/10/18 02:24:33;;;;;;;17.45;3.90;;;10.40;99.90;;;;;;4915228;29;20052;-82
2022/10/18 02:27:01;;;;;;;24.17;3.75;;;10.40;99.90;;;;;;4913828;29;20091;-79
2022/10/18 02:29:29;;;;;;;20.98;3.65;;;10.40;99.90;;;;;;4914591;29;20416;-79
2022/10/18 02:32:04;;;;;;;15.80;3.17;;;10.40;99.90;;;;;;4913467;29;20048;-78
2022/10/18 02:34:37;;;;;;;13.10;2.60;;;10.40;99.90;;;;;;4897672;29;20058;-78
2022/10/18 02:37:04;;;;;;;14.20;2.92;;;10.40;99.90;;;;;;4915214;29;20048;-79
2022/10/18 02:39:35;;;;;;;15.13;3.70;;;10.40;99.90;;;;;;4912817;29;20044;-79
2022/10/18 02:42:05;;;;;;;10.65;3.05;;;10.50;99.90;;;;;;4915738;29;20055;-78
2022/10/18 02:44:33;;;;;;;11.90;2.53;;;10.50;99.90;;;;;;4911635;29;20127;-78
2022/10/18 02:47:02;;;;;;;8.50;2.88;;;10.50;99.90;;;;;;4914633;29;20059;-79
2022/10/18 02:49:29;;;;;;;13.20;2.92;;;10.50;99.90;;;;;;4914101;29;20073;-79
2022/10/18 02:51:56;;;;;;;14.95;2.83;;;10.50;99.90;;;;;;4915239;29;20052;-78
2022/10/18 02:54:24;;;;;;;7.97;2.50;;;10.50;99.90;;;;;;4910545;29;20120;-79
2022/10/18 02:56:51;;;;;;;11.77;2.58;;;10.50;99.90;;;;;;4914535;29;20048;-83
2022/10/18 02:59:18;;;;;;;10.85;2.38;;;10.40;99.90;;;;;;4914868;29;20391;-83
2022/10/18 03:01:45;;;;;;;10.93;2.63;;;10.40;99.90;;;;;;4898462;29;20044;-82
2022/10/18 03:04:14;;;;;;;19.17;3.05;;;10.30;99.90;;;;;;4910778;29;20056;-83
2022/10/18 03:06:41;;;;;;;17.75;2.92;;;10.30;99.90;;;;;;4914665;29;20051;-84
2022/10/18 03:09:09;;;;;;;12.00;2.75;;;10.30;99.90;;;;;;4916164;29;20055;-83
2022/10/18 03:11:37;;;;;;;10.90;2.60;;;10.30;99.90;;;;;;4907764;29;20080;-83
2022/10/18 03:14:04;;;;;;;12.85;3.42;;;10.30;99.90;;;;;;4915499;29;20052;-83
2022/10/18 03:16:32;;;;;;;9.80;2.63;;;10.20;99.90;;;;;;4913511;29;20052;-84
2022/10/18 03:19:00;;;;;;;21.48;4.03;;;10.20;99.90;;;;;;4899113;29;20059;-82
2022/10/18 03:21:28;;;;;;;13.95;3.47;;;10.20;99.90;;;;;;4913281;29;20428;-82
2022/10/18 03:23:57;;;;;;;14.40;4.22;;;10.20;99.90;;;;;;4914704;29;20052;-82
2022/10/18 03:26:24;;;;;;;9.85;3.70;;;10.20;99.90;;;;;;4912628;29;20048;-82
2022/10/18 03:28:51;;;;;;;13.70;3.33;;;10.20;99.90;;;;;;4912760;29;20076;-82
2022/10/18 03:31:19;;;;;;;15.60;3.97;;;10.20;99.90;;;;;;4912262;29;20263;-82
2022/10/18 03:33:46;;;;;;;13.48;3.95;;;10.20;99.90;;;;;;4914059;29;20044;-83
2022/10/18 03:36:14;;;;;;;15.02;4.80;;;10.20;99.90;;;;;;4913069;29;20060;-81
2022/10/18 03:38:42;;;;;;;8.85;3.92;;;10.10;99.90;;;;;;4913948;29;20071;-81
2022/10/18 03:41:11;;;;;;;15.00;3.80;;;10.20;99.90;;;;;;4912700;29;20139;-83
2022/10/18 03:43:39;;;;;;;17.00;5.78;;;10.20;99.90;;;;;;4895053;29;20750;-80
2022/10/18 03:46:08;;;;;;;11.35;4.20;;;10.20;99.90;;;;;;4910467;29;20078;-85
2022/10/18 03:48:35;;;;;;;12.15;3.80;;;10.20;99.90;;;;;;4907878;29;20042;-84
2022/10/18 03:51:03;;;;;;;13.27;4.80;;;10.20;99.90;;;;;;4920588;29;20059;-84
2022/10/18 03:53:30;;;;;;;12.38;4.93;;;10.20;99.90;;;;;;4919082;29;20059;-84
2022/10/18 03:55:59;;;;;;;12.95;5.47;;;10.10;99.90;;;;;;4900478;29;20159;-83
2022/10/18 03:58:26;;;;;;;13.43;5.43;;;10.20;99.90;;;;;;4912136;29;20040;-83
2022/10/18 04:00:54;;;;;;;14.90;5.68;;;10.10;99.90;;;;;;4908282;29;20143;-80
2022/10/18 04:03:23;;;;;;;14.32;5.97;;;10.10;99.90;;;;;;4913793;29;20517;-80
2022/10/18 04:06:02;;;;;;;20.40;6.30;;;10.10;99.90;;;;;;4914904;29;20072;-81
2022/10/18 04:08:29;;;;;;;19.33;7.00;;;10.10;99.90;;;;;;4916836;29;21285;-82
2022/10/18 04:10:58;;;;;;;21.13;7.20;;;10.10;99.90;;;;;;4919917;29;20107;-80
2022/10/18 04:13:26;;;;;;;19.45;7.57;;;10.20;99.90;;;;;;4918174;29;20532;-80
2022/10/18 04:15:53;;;;;;;22.67;8.98;;;10.10;99.90;;;;;;4899700;29;20051;-81
2022/10/18 04:18:20;;;;;;;18.58;8.27;;;10.10;99.90;;;;;;4914014;29;20048;-79
2022/10/18 04:20:48;;;;;;;19.77;7.97;;;10.00;99.90;;;;;;4914627;29;20453;-78
2022/10/18 04:23:15;;;;;;;16.30;8.63;;;10.00;99.90;;;;;;4917188;29;20048;-79
2022/10/18 04:25:47;;;;;;;16.92;8.27;;;10.00;99.90;;;;;;4915764;29;20063;-79
2022/10/18 04:28:17;;;;;;;21.05;8.27;;;10.00;99.90;;;;;;4912428;29;20055;-80
2022/10/18 04:30:50;;;;;;;16.42;7.97;;;9.90;99.90;;;;;;4926033;29;20401;-79
2022/10/18 04:33:17;;;;;;;19.25;8.45;;;9.90;99.90;;;;;;4902578;29;20059;-75
2022/10/18 04:35:45;;;;;;;15.50;7.82;;;9.80;99.90;;;;;;4909767;29;20135;-80
2022/10/18 04:38:13;;;;;;;19.58;7.78;;;9.80;99.90;;;;;;4926940;29;20048;-80
2022/10/18 04:40:41;;;;;;;19.92;8.05;;;9.80;99.90;;;;;;4928868;29;20074;-85
2022/10/18 04:43:09;;;;;;;21.23;8.07;;;9.70;99.90;;;;;;4922212;29;20115;-85
2022/10/18 04:45:40;;;;;;;17.33;7.57;;;9.70;99.90;;;;;;4923816;29;20054;-81
2022/10/18 04:48:09;;;;;;;17.90;8.38;;;9.70;99.90;;;;;;4921223;29;20440;-81
2022/10/18 04:50:42;;;;;;;15.27;7.75;;;9.70;99.90;;;;;;4924339;29;20069;-85
2022/10/18 04:53:19;;;;;;;17.30;7.78;;;9.70;99.90;;;;;;4911212;29;20058;-87
2022/10/18 04:55:51;;;;;;;20.30;7.68;;;9.70;99.90;;;;;;4927546;29;20075;-87
2022/10/18 04:58:21;;;;;;;18.17;7.55;;;9.70;99.90;;;;;;4931538;29;20059;-87
2022/10/18 05:00:54;;;;;;;18.33;8.25;;;9.70;99.90;;;;;;4933719;29;20032;-87
2022/10/18 05:03:24;;;;;;;21.35;9.15;;;9.70;99.90;;;;;;4925290;29;20097;-85
2022/10/18 05:05:53;;;;;;;19.35;7.95;;;9.70;99.90;;;;;;4905930;29;20134;-79
2022/10/18 05:08:21;;;;;;;17.92;8.18;;;9.70;99.90;;;;;;4914187;29;20580;-79
2022/10/18 05:10:48;;;;;;;17.90;7.57;;;9.70;99.90;;;;;;4918132;29;20058;-80
2022/10/18 05:13:15;;;;;;;20.25;6.97;;;9.80;99.90;;;;;;4917633;29;20059;-84
2022/10/18 05:15:42;;;;;;;19.88;5.85;;;9.70;99.90;;;;;;4920838;29;20540;-84
2022/10/18 05:18:11;;;;;;;13.63;5.43;;;9.80;99.90;;;;;;4916531;29;20135;-80
2022/10/18 05:20:38;;;;;;;9.35;4.38;;;9.70;99.90;;;;;;4914546;29;20052;-79
2022/10/18 05:23:09;;;;;;;11.40;4.25;;;9.80;99.90;;;;;;4927686;29;20145;-79
2022/10/18 05:25:38;;;;;;;8.80;3.83;;;9.70;99.90;;;;;;4897994;29;20139;-78
2022/10/18 05:28:05;;;;;;;8.02;3.47;;;9.70;99.90;;;;;;4896823;29;20187;-79
2022/10/18 05:30:32;;;;;;;7.32;3.47;;;9.70;99.90;;;;;;4912011;29;20054;-78
2022/10/18 05:33:00;;;;;;;7.53;2.78;;;9.80;99.90;;;;;;4893987;29;20048;-79
2022/10/18 05:35:28;;;;;;;8.38;2.92;;;9.80;99.90;;;;;;4895572;29;20104;-79
2022/10/18 05:37:55;;;;;;;10.07;3.42;;;9.70;99.90;;;;;;4911835;29;20147;-78
2022/10/18 05:40:23;;;;;;;7.03;2.58;;;9.70;99.90;;;;;;4912436;29;20053;-78
2022/10/18 05:42:52;;;;;;;6.85;2.78;;;9.70;99.90;;;;;;4909452;29;20107;-78
2022/10/18 05:45:19;;;;;;;8.07;2.90;;;9.80;99.90;;;;;;4914258;29;20127;-78
2022/10/18 05:47:46;;;;;;;11.75;3.13;;;9.80;99.90;;;;;;4916090;29;20055;-79
2022/10/18 05:50:15;;;;;;;7.93;3.35;;;9.80;99.90;;;;;;4911910;29;20123;-77
2022/10/18 05:52:43;;;;;;;8.98;2.70;;;9.80;99.90;;;;;;4916425;29;20052;-76
2022/10/18 05:55:11;;;;;;;9.38;2.83;;;9.90;99.90;;;;;;4914214;29;20052;-76
2022/10/18 05:57:40;;;;;;;8.90;3.10;;;9.90;99.90;;;;;;4916778;29;20056;-77
2022/10/18 06:00:08;;;;;;;8.77;2.45;;;9.90;99.90;;;;;;4897460;29;20044;-76
2022/10/18 06:02:39;;;;;;;7.07;2.22;;;9.90;99.90;;;;;;4913684;29;20576;-82
2022/10/18 06:05:06;;;;;;;7.22;2.42;;;9.90;99.90;;;;;;4911519;29;20090;-83
2022/10/18 06:07:34;;;;;;;6.95;2.30;;;10.00;99.90;;;;;;4898809;29;20060;-82
2022/10/18 06:10:03;;;;;;;6.50;3.13;;;10.10;99.90;;;;;;4916248;29;20073;-83
2022/10/18 06:12:30;;;;;;;7.63;2.03;;;10.10;99.90;;;;;;4914013;29;20062;-81
2022/10/18 06:14:57;;;;;;;11.02;2.97;;;10.10;99.90;;;;;;4904554;29;20052;-81
2022/10/18 06:17:25;;;;;;;5.70;2.33;;;10.00;99.90;;;;;;4914236;29;20051;-83
2022/10/18 06:19:54;;;;;;;8.88;2.97;;;10.00;99.90;;;;;;4911735;29;20366;-83
2022/10/18 06:22:21;;;;;;;8.05;2.78;;;10.00;99.90;;;;;;4917915;29;20111;-82
2022/10/18 06:24:48;;;;;;;6.20;2.55;;;10.00;99.90;;;;;;4926240;29;20048;-85
2022/10/18 06:27:17;;;;;;;8.93;2.25;;;9.90;99.90;;;;;;4912895;29;20048;-85
2022/10/18 06:29:44;;;;;;;12.30;2.20;;;9.90;99.90;;;;;;4919242;29;20052;-86
2022/10/18 06:32:11;;;;;;;7.30;2.15;;;9.90;99.90;;;;;;4917456;29;20052;-84
2022/10/18 06:34:39;;;;;;;10.50;2.42;;;9.80;99.90;;;;;;4916727;29;20048;-86
2022/10/18 06:37:06;;;;;;;10.07;2.50;;;9.80;99.90;;;;;;4913923;29;20456;-84
2022/10/18 06:39:34;;;;;;;8.80;2.45;;;9.80;99.90;;;;;;4918336;29;20107;-85
2022/10/18 06:42:01;;;;;;;9.25;2.85;;;9.90;99.90;;;;;;4916247;29;20505;-85
2022/10/18 06:44:34;;;;;;;12.10;4.25;;;9.90;99.90;;;;;;4920012;29;20572;-84
2022/10/18 06:47:02;;;;;;;8.13;2.47;;;9.90;99.90;;;;;;4917479;29;20112;-86
2022/10/18 06:49:31;;;;;;;7.10;2.45;;;9.90;99.90;;;;;;4920495;29;20078;-85
2022/10/18 06:52:01;;;;;;;5.07;2.35;;;9.90;99.90;;;;;;4917996;29;20101;-86
2022/10/18 06:54:28;;;;;;;8.98;2.60;;;9.90;99.90;;;;;;4917565;29;20252;-82
2022/10/18 06:56:58;;;;;;;9.32;3.10;;;9.90;99.90;;;;;;4917683;29;20143;-84
2022/10/18 06:59:26;;;;;;;10.88;3.15;;;9.90;99.90;;;;;;4915477;29;20778;-80
2022/10/18 07:01:55;;;;;;;5.72;1.95;;;9.90;99.90;;;;;;4907613;29;20048;-82
2022/10/18 07:04:22;;;;;;;5.22;2.47;;;9.90;99.90;;;;;;4890919;29;20448;-82
2022/10/18 07:06:49;;;;;;;8.48;3.10;;;9.90;99.90;;;;;;4911363;29;20107;-82
2022/10/18 07:09:16;;;;;;;5.30;3.22;;;9.90;99.90;;;;;;4914993;29;20123;-82
2022/10/18 07:11:44;;;;;;;7.60;2.72;;;9.90;99.90;;;;;;4915490;29;20379;-82
2022/10/18 07:14:11;;;;;;;7.40;3.22;;;9.90;99.90;;;;;;4914815;29;20143;-81
2022/10/18 07:16:38;;;;;;;6.90;3.10;;;10.00;99.90;;;;;;4931933;29;20497;-81
2022/10/18 07:19:07;;;;;;;8.13;3.03;;;10.00;99.90;;;;;;4917658;29;20104;-83
2022/10/18 07:21:34;;;;;;;9.25;2.90;;;10.00;99.90;;;;;;4910507;29;20466;-80
2022/10/18 07:24:02;;;;;;;8.13;2.90;;;10.10;99.90;;;;;;4914896;29;20496;-83
2022/10/18 07:26:31;;;;;;;9.38;4.40;;;10.10;99.90;;;;;;4913035;29;20059;-82
2022/10/18 07:29:01;;;;;;;8.82;2.85;;;10.10;99.90;;;;;;4910488;29;20044;-82
2022/10/18 07:31:29;;;;;;;14.20;3.28;;;10.10;99.90;;;;;;4907970;29;20059;-81
2022/10/18 07:33:56;;;;;;;10.25;3.58;;;10.10;99.90;;;;;;4914064;29;20044;-81
2022/10/18 07:36:25;;;;;;;12.20;4.35;;;10.20;99.90;;;;;;4909880;29;20140;-79
2022/10/18 07:38:53;;;;;;;8.48;3.40;;;10.20;99.90;;;;;;4912869;29;20052;-79
2022/10/18 07:41:21;;;;;;;7.47;2.88;;;10.20;99.90;;;;;;4910228;29;20068;-79
2022/10/18 07:43:49;;;;;;;9.93;3.05;;;10.20;99.90;;;;;;4912454;29;20051;-79
2022/10/18 07:46:17;;;;;;;8.20;2.80;;;10.20;99.90;;;;;;4914890;29;20914;-79
2022/10/18 07:48:45;;;;;;;10.45;3.45;;;10.10;99.90;;;;;;4912240;29;20052;-78
2022/10/18 07:51:12;;;;;;;5.38;2.00;;;10.10;99.90;;;;;;4909836;29;20048;-79
2022/10/18 07:53:41;;;;;;;8.63;2.95;;;10.10;99.90;;;;;;4911692;29;20056;-77
2022/10/18 07:56:14;;;;;;;3.95;2.13;;;10.10;99.90;;;;;;4913627;29;20059;-78
2022/10/18 07:58:42;;;;;;;7.15;2.22;;;10.10;99.90;;;;;;4911446;29;20126;-78
2022/10/18 08:01:09;;;;;;;8.80;2.50;;;10.00;99.90;;;;;;4912881;29;20493;-77
2022/10/18 08:03:37;;;;;;;6.18;1.90;;;10.00;99.90;;;;;;4910328;29;20266;-78
2022/10/18 08:06:09;;;;;;;6.65;2.42;;;10.00;99.90;;;;;;4906430;29;20582;-76
2022/10/18 08:08:38;;;;;;;6.45;2.10;;;10.00;99.90;;;;;;4907907;29;20525;-78
2022/10/18 08:11:08;;;;;;;6.85;2.35;;;9.90;99.90;;;;;;4911558;29;20051;-78
2022/10/18 08:13:35;;;;;;;6.45;1.85;;;9.90;99.90;;;;;;4908991;29;20052;-79
2022/10/18 08:16:04;;;;;;;3.80;1.83;;;9.80;99.90;;;;;;4915430;29;20044;-77
2022/10/18 08:18:32;;;;;;;4.85;1.85;;;9.90;99.90;;;;;;4909204;29;20478;-77
2022/10/18 08:21:00;;;;;;;3.80;1.80;;;9.90;99.90;;;;;;4911174;29;20044;-78
2022/10/18 08:23:28;;;;;;;6.30;2.28;;;9.90;99.90;;;;;;4915918;29;20056;-77
2022/10/18 08:25:58;;;;;;;6.05;2.00;;;9.90;99.90;;;;;;4910369;29;20075;-77
2022/10/18 08:28:27;;;;;;;5.50;2.20;;;9.90;99.90;;;;;;4910572;29;20059;-77
2022/10/18 08:30:54;;;;;;;4.65;2.20;;;9.90;99.90;;;;;;4910745;29;20044;-78
2022/10/18 08:33:21;;;;;;;5.90;2.50;;;9.90;99.90;;;;;;4910535;29;20107;-78
2022/10/18 08:35:55;;;;;;;7.90;2.83;;;9.90;99.90;;;;;;4911128;29;20048;-78
2022/10/18 08:38:22;;;;;;;6.18;2.20;;;9.90;99.90;;;;;;4912118;29;20071;-77
2022/10/18 08:40:49;;;;;;;7.50;2.30;;;9.90;99.90;;;;;;4911346;29;20509;-77
2022/10/18 08:43:23;;;;;;;6.47;2.38;;;9.90;99.90;;;;;;4911742;29;20044;-78
2022/10/18 08:45:54;;;;;;;4.57;2.00;;;9.90;99.90;;;;;;4909092;29;20716;-80
2022/10/18 08:48:30;;;;;;;8.27;4.32;;;9.90;99.90;;;;;;4909451;29;20052;-81
2022/10/18 08:50:59;;;;;;;9.18;3.70;;;9.90;99.90;;;;;;4930426;28;20052;-80
2022/10/18 08:53:31;;;;;;;9.88;3.50;;;10.00;99.90;;;;;;4912309;29;20044;-80
2022/10/18 08:56:09;;;;;;;6.00;2.67;;;10.00;99.90;;;;;;4911679;29;20096;-81
2022/10/18 08:58:38;;;;;;;4.30;1.90;;;10.10;99.90;;;;;;4913399;29;20458;-81
2022/10/18 09:01:20;;;;;;;3.47;2.30;;;10.10;99.90;;;;;;4897112;29;20052;-81
2022/10/18 09:04:03;;;;;;;5.05;2.72;;;10.10;99.90;;;;;;4912228;29;20086;-81
2022/10/18 09:06:35;;;;;;;6.45;1.40;;;10.20;99.90;;;;;;4912609;29;20059;-81
2022/10/18 09:09:22;;;;;;;3.40;1.92;;;10.30;99.90;;;;;;4914746;29;20050;-80
2022/10/18 09:11:58;;;;;;;4.55;1.60;;;10.30;99.90;;;;;;4911106;29;20051;-78
2022/10/18 09:14:52;;;;;;;4.47;1.17;;;10.40;99.90;;;;;;4912107;29;20055;-82
2022/10/18 09:17:35;;;;;;;4.45;1.50;;;10.40;99.90;;;;;;4906979;29;20107;-82
2022/10/18 09:20:16;;;;;;;3.10;1.17;;;10.40;99.90;;;;;;4908772;29;20572;-84
2022/10/18 09:22:53;;;;;;;2.42;1.13;;;10.40;99.90;;;;;;4912773;29;20505;-85
2022/10/18 09:25:23;;;;;;;1.83;0.90;;;10.40;99.90;;;;;;4914331;29;20084;-83
2022/10/18 09:27:58;;;;;;;1.20;0.80;;;10.40;99.90;;;;;;4914692;29;20568;-85
2022/10/18 09:30:45;;;;;;;2.47;1.10;;;10.40;99.90;;;;;;4921019;29;20059;-83
2022/10/18 09:33:39;;;;;;;3.97;1.13;;;10.40;99.90;;;;;;4911905;29;20055;-83
2022/10/18 09:36:09;;;;;;;2.38;0.90;;;10.50;99.90;;;;;;4915739;29;20056;-84
2022/10/18 09:38:43;;;;;;;2.63;0.90;;;10.70;99.90;;;;;;4912676;29;20072;-82
2022/10/18 09:41:16;;;;;;;1.30;0.70;;;10.70;99.90;;;;;;4912605;29;20537;-82
2022/10/18 09:43:52;;;;;;;1.38;1.17;;;10.80;99.90;;;;;;4916006;29;20051;-83
2022/10/18 09:46:22;;;;;;;1.73;1.20;;;10.80;99.90;;;;;;4916536;29;20072;-82
2022/10/18 09:48:55;;;;;;;2.55;1.23;;;10.90;99.90;;;;;;4914554;29;20423;-83
2022/10/18 09:51:26;;;;;;;8.35;3.25;;;10.90;99.90;;;;;;4909530;29;20139;-83
2022/10/18 09:54:14;;;;;;;3.65;1.13;;;10.90;99.90;;;;;;4914562;29;20183;-83
2022/10/18 09:56:47;;;;;;;3.80;1.02;;;11.00;99.90;;;;;;4913604;29;20523;-80
2022/10/18 09:59:35;;;;;;;2.03;0.90;;;10.90;99.90;;;;;;4898147;29;20052;-83
2022/10/18 10:02:02;;;;;;;4.07;1.75;;;10.90;99.90;;;;;;4913800;29;20152;-81
2022/10/18 10:04:31;;;;;;;3.13;1.30;;;10.90;99.90;;;;;;4913265;29;20142;-79
2022/10/18 10:07:01;;;;;;;2.00;1.10;;;10.80;99.90;;;;;;4895643;29;20046;-82
2022/10/18 10:09:30;;;;;;;6.03;1.70;;;10.80;99.90;;;;;;4911559;29;20440;-83
2022/10/18 10:11:58;;;;;;;3.28;1.17;;;10.80;99.90;;;;;;4912878;29;20109;-81
2022/10/18 10:14:29;;;;;;;2.53;1.33;;;10.80;99.90;;;;;;4920959;29;20056;-81
2022/10/18 10:16:58;;;;;;;4.85;1.30;;;10.80;99.90;;;;;;4913122;29;20052;-81
2022/10/18 10:19:33;;;;;;;6.50;1.00;;;10.80;99.90;;;;;;4914561;29;20044;-81
2022/10/18 10:22:05;;;;;;;4.20;1.15;;;10.80;99.90;;;;;;4914821;29;20040;-80
2022/10/18 10:24:45;;;;;;;2.63;1.02;;;10.80;99.90;;;;;;4913098;29;20048;-81
2022/10/18 10:27:20;;;;;;;3.08;1.10;;;10.80;99.90;;;;;;4913404;29;20568;-81
2022/10/18 10:29:56;;;;;;;2.65;0.82;;;10.80;99.90;;;;;;4913635;29;20062;-81
2022/10/18 10:32:27;;;;;;;3.80;1.38;;;10.80;99.90;;;;;;4911015;29;20051;-79
2022/10/18 10:34:57;;;;;;;2.88;0.95;;;10.80;99.90;;;;;;4913063;29;20048;-79
2022/10/18 10:37:31;;;;;;;2.80;0.90;;;10.70;99.90;;;;;;4909982;29;20062;-80
2022/10/18 10:40:21;;;;;;;2.10;1.00;;;10.70;99.90;;;;;;4914558;29;20520;-81
2022/10/18 10:43:07;;;;;;;4.00;1.10;;;10.70;99.90;;;;;;4909270;29;20513;-86
2022/10/18 10:45:37;;;;;;;6.75;0.90;;;10.80;99.90;;;;;;4919086;29;20059;-86
2022/10/18 10:48:14;;;;;;;5.10;1.20;;;10.80;99.90;;;;;;4921195;29;20076;-86
2022/10/18 10:50:55;;;;;;;4.28;0.90;;;10.80;99.90;;;;;;4918574;29;20048;-88
2022/10/18 10:53:51;;;;;;;3.15;0.90;;;10.70;99.90;;;;;;4924055;29;20060;-87
2022/10/18 10:56:24;;;;;;;1.40;0.88;;;10.70;99.90;;;;;;4904882;29;20520;-86
2022/10/18 10:58:53;;;;;;;2.50;0.98;;;10.70;99.90;;;;;;4919731;29;20056;-84
2022/10/18 11:01:24;;;;;;;1.77;0.80;;;10.70;99.90;;;;;;4927108;29;20044;-87
2022/10/18 11:03:53;;;;;;;1.50;0.73;;;10.80;99.90;;;;;;4915262;29;20048;-84
2022/10/18 11:06:57;;;;;;;4.95;0.98;;;10.80;99.90;;;;;;4914709;29;20563;-83
2022/10/18 11:09:32;;;;;;;3.30;0.60;;;10.90;99.90;;;;;;4902865;29;20116;-84
2022/10/18 11:12:05;;;;;;;3.83;1.00;;;11.00;99.90;;;;;;4915903;29;20111;-85
2022/10/18 11:14:38;;;;;;;4.22;1.63;;;11.00;99.90;;;;;;4912768;29;20056;-84
2022/10/18 11:17:20;;;;;;;3.45;0.63;;;11.10;99.90;;;;;;4914390;29;20119;-85
2022/10/18 11:20:00;;;;;;;2.47;1.23;;;11.20;99.90;;;;;;4911003;29;20487;-83
2022/10/18 11:22:35;;;;;;;2.65;0.90;;;11.20;99.90;;;;;;4916875;29;20139;-87
2022/10/18 11:25:06;;;;;;;1.55;1.45;;;11.30;99.90;;;;;;4914307;29;20075;-85
2022/10/18 11:27:39;;;;;;;4.28;3.38;;;11.50;99.90;;;;;;4915324;29;20052;-85
2022/10/18 11:30:21;;;;;;;6.68;5.78;;;11.70;99.90;;;;;;4921223;29;20534;-86
2022/10/18 11:32:59;;;;;;;7.68;5.70;;;11.70;99.90;;;;;;4900902;29;20464;-84
2022/10/18 11:35:39;;;;;;;2.00;1.48;;;11.60;99.90;;;;;;4915778;29;20052;-80
2022/10/18 11:38:18;;;;;;;2.85;1.30;;;11.50;99.90;;;;;;4915211;29;20127;-85
2022/10/18 11:41:00;;;;;;;1.95;1.10;;;11.40;99.90;;;;;;4919379;29;20513;-86
2022/10/18 11:43:37;;;;;;;2.17;1.00;;;11.30;99.90;;;;;;4915542;29;20039;-85
2022/10/18 11:46:12;;;;;;;5.75;1.30;;;11.30;99.90;;;;;;4916151;29;20560;-85
2022/10/18 11:49:11;;;;;;;6.38;2.70;;;11.30;99.90;;;;;;4911654;29;20072;-84
2022/10/18 11:51:51;;;;;;;8.13;7.32;;;11.30;99.90;;;;;;4903537;29;20068;-87
2022/10/18 11:54:32;;;;;;;5.68;5.07;;;11.30;99.90;;;;;;4916972;29;20060;-83
2022/10/18 11:57:06;;;;;;;3.25;1.50;;;11.30;99.90;;;;;;4914272;29;20451;-85
2022/10/18 11:59:38;;;;;;;2.53;1.48;;;11.30;99.90;;;;;;4917264;29;20064;-83
2022/10/18 12:02:38;;;;;;;3.40;1.27;;;11.20;99.90;;;;;;4916078;29;20842;-83
2022/10/18 12:05:08;;;;;;;5.55;3.38;;;11.20;99.90;;;;;;4921164;29;20044;-84
2022/10/18 12:07:42;;;;;;;7.22;2.78;;;11.10;99.90;;;;;;4903063;29;20048;-85
2022/10/18 12:10:17;;;;;;;4.45;1.85;;;11.00;99.90;;;;;;4914358;29;20066;-83
2022/10/18 12:12:51;;;;;;;7.32;5.78;;;10.90;99.90;;;;;;4915968;29;20044;-81
2022/10/18 12:15:22;;;;;;;9.73;5.38;;;11.00;99.90;;;;;;4915469;29;20095;-81
2022/10/18 12:17:54;;;;;;;4.15;3.00;;;11.00;99.90;;;;;;4914302;29;20060;-83
2022/10/18 12:20:26;;;;;;;3.80;2.17;;;11.10;99.90;;;;;;4915196;29;20055;-83
2022/10/18 12:22:59;;;;;;;1.77;1.17;;;11.30;99.90;;;;;;4916171;29;20100;-80
2022/10/18 12:25:29;;;;;;;3.58;1.77;;;11.30;99.90;;;;;;4916599;29;20120;-79
2022/10/18 12:28:05;;;;;;;5.18;0.60;;;11.40;99.90;;;;;;4918716;29;20047;-83
2022/10/18 12:30:42;;;;;;;7.30;1.67;;;11.50;99.90;;;;;;4929708;29;20075;-82
2022/10/18 12:33:15;;;;;;;1.00;0.75;;;11.50;99.90;;;;;;4906717;29;20520;-83
2022/10/18 12:35:57;;;;;;;2.30;0.80;;;11.50;99.90;;;;;;4921008;29;20072;-86
2022/10/18 12:38:28;;;;;;;2.20;1.10;;;11.50;99.90;;;;;;4926532;29;20052;-83
2022/10/18 12:40:58;;;;;;;3.53;1.63;;;11.50;99.90;;;;;;4918035;29;20044;-86
2022/10/18 12:44:09;;;;;;;5.05;2.10;;;11.60;99.90;;;;;;4920119;29;20068;-86
2022/10/18 12:46:47;;;;;;;3.53;1.63;;;11.80;99.90;;;;;;4902351;29;20051;-79
2022/10/18 12:49:29;;;;;;;;;;;11.90;99.90;;;;;;4920086;29;20507;-82
2022/10/18 12:52:01;;;;;;;2.25;1.83;;;11.80;99.90;;;;;;4914835;29;19927;-82
2022/10/18 12:54:33;;;;;;;4.80;2.00;;;11.70;99.90;;;;;;4911648;29;21429;-76
2022/10/18 12:57:04;;;;;;;4.25;2.25;;;11.60;99.90;;;;;;4929809;29;20123;-77
2022/10/18 12:59:52;;;;;;;4.20;2.38;;;11.40;99.90;;;;;;4919140;29;20151;-81
2022/10/18 13:02:30;;;;;;;7.22;3.67;;;11.40;99.90;;;;;;4936254;29;20051;-80
2022/10/18 13:04:59;;;;;;;4.43;2.38;;;11.30;99.90;;;;;;4917284;29;20581;-83
2022/10/18 13:07:39;;;;;;;7.50;3.80;;;11.20;99.90;;;;;;4915622;29;20040;-82
2022/10/18 13:10:41;;;;;;;5.43;3.08;;;11.00;99.90;;;;;;4914602;29;20048;-76